sensor_id;sensor_type;location;lat;lon;timestamp;pressure;altitude;pressure_sealevel;temperature;humidity
22572;BME280;11452;53.368;14.658;2023-02-28T00:03:48;102616.74;;;0.53;73.84
22572;BME280;11452;53.368;14.658;2023-02-28T00:08:53;102613.70;;;0.55;73.84
22572;BME280;11452;53.368;14.658;2023-02-28T00:13:59;102618.52;;;0.54;74.16
22572;BME280;11452;53.368;14.658;2023-02-28T00:19:04;102626.34;;;0.51;73.96
22572;BME280;11452;53.368;14.658;2023-02-28T00:24:10;102629.87;;;0.51;74.08
22572;BME280;11452;53.368;14.658;2023-02-28T00:29:15;102626.30;;;0.48;73.96
22572;BME280;11452;53.368;14.658;2023-02-28T00:34:21;102633.19;;;0.41;74.12
22572;BME280;11452;53.368;14.658;2023-02-28T00:39:26;102634.00;;;0.36;74.08
22572;BME280;11452;53.368;14.658;2023-02-28T00:44:32;102639.69;;;0.35;74.18
22572;BME280;11452;53.368;14.658;2023-02-28T00:49:37;102634.91;;;0.39;74.21
22572;BME280;11452;53.368;14.658;2023-02-28T00:54:45;102635.48;;;0.46;74.52
22572;BME280;11452;53.368;14.658;2023-02-28T00:59:51;102635.17;;;0.56;74.39
22572;BME280;11452;53.368;14.658;2023-02-28T01:04:58;102634.34;;;0.58;73.87
22572;BME280;11452;53.368;14.658;2023-02-28T01:10:06;102637.50;;;0.64;73.63
22572;BME280;11452;53.368;14.658;2023-02-28T01:15:12;102640.27;;;0.72;73.52
22572;BME280;11452;53.368;14.658;2023-02-28T01:20:18;102644.44;;;0.59;73.09
22572;BME280;11452;53.368;14.658;2023-02-28T01:25:23;102651.95;;;0.34;72.49
22572;BME280;11452;53.368;14.658;2023-02-28T01:30:29;102647.30;;;0.18;73.01
22572;BME280;11452;53.368;14.658;2023-02-28T01:35:36;102648.09;;;0.14;73.23
22572;BME280;11452;53.368;14.658;2023-02-28T01:40:41;102645.44;;;0.13;73.40
22572;BME280;11452;53.368;14.658;2023-02-28T01:45:47;102645.78;;;0.08;73.43
22572;BME280;11452;53.368;14.658;2023-02-28T01:50:53;102642.23;;;0.06;73.70
22572;BME280;11452;53.368;14.658;2023-02-28T01:56:00;102643.03;;;0.00;73.58
22572;BME280;11452;53.368;14.658;2023-02-28T02:01:07;102640.26;;;-0.08;73.50
22572;BME280;11452;53.368;14.658;2023-02-28T02:06:13;102641.48;;;-0.12;73.65
22572;BME280;11452;53.368;14.658;2023-02-28T02:11:19;102646.24;;;-0.15;73.75
22572;BME280;11452;53.368;14.658;2023-02-28T02:16:55;102647.89;;;-0.21;73.73
22572;BME280;11452;53.368;14.658;2023-02-28T02:27:55;102651.31;;;-0.25;73.98
22572;BME280;11452;53.368;14.658;2023-02-28T02:33:31;102654.86;;;-0.23;74.09
22572;BME280;11452;53.368;14.658;2023-02-28T02:44:10;102645.27;;;-0.21;73.97
22572;BME280;11452;53.368;14.658;2023-02-28T02:49:05;102644.87;;;-0.18;74.11
22572;BME280;11452;53.368;14.658;2023-02-28T02:54:26;102648.32;;;-0.22;74.06
22572;BME280;11452;53.368;14.658;2023-02-28T02:59:35;102643.98;;;-0.20;74.24
22572;BME280;11452;53.368;14.658;2023-02-28T03:04:47;102642.21;;;-0.21;74.03
22572;BME280;11452;53.368;14.658;2023-02-28T03:09:54;102636.01;;;-0.24;73.94
22572;BME280;11452;53.368;14.658;2023-02-28T03:15:08;102638.84;;;-0.36;74.41
22572;BME280;11452;53.368;14.658;2023-02-28T03:31:06;102651.80;;;-0.23;74.84
22572;BME280;11452;53.368;14.658;2023-02-28T03:36:16;102652.23;;;-0.23;74.68
22572;BME280;11452;53.368;14.658;2023-02-28T03:41:30;102649.23;;;-0.20;74.88
22572;BME280;11452;53.368;14.658;2023-02-28T03:46:35;102653.17;;;-0.18;74.42
22572;BME280;11452;53.368;14.658;2023-02-28T03:51:42;102657.58;;;-0.19;74.75
22572;BME280;11452;53.368;14.658;2023-02-28T04:01:58;102652.13;;;-0.28;74.65
22572;BME280;11452;53.368;14.658;2023-02-28T04:07:08;102644.52;;;-0.38;74.49
22572;BME280;11452;53.368;14.658;2023-02-28T04:12:13;102642.52;;;-0.49;74.34
22572;BME280;11452;53.368;14.658;2023-02-28T04:17:19;102654.05;;;-0.43;75.05
22572;BME280;11452;53.368;14.658;2023-02-28T04:22:24;102658.34;;;-0.46;74.79
22572;BME280;11452;53.368;14.658;2023-02-28T04:27:33;102659.12;;;-0.50;74.97
22572;BME280;11452;53.368;14.658;2023-02-28T04:32:39;102662.80;;;-0.64;74.62
22572;BME280;11452;53.368;14.658;2023-02-28T04:37:44;102667.79;;;-0.56;75.50
22572;BME280;11452;53.368;14.658;2023-02-28T04:42:50;102665.48;;;-0.61;75.49
22572;BME280;11452;53.368;14.658;2023-02-28T04:47:55;102671.84;;;-0.70;74.57
22572;BME280;11452;53.368;14.658;2023-02-28T04:53:01;102678.56;;;-1.03;75.00
22572;BME280;11452;53.368;14.658;2023-02-28T04:58:06;102673.30;;;-0.84;75.51
22572;BME280;11452;53.368;14.658;2023-02-28T05:03:13;102677.45;;;-0.74;75.45
22572;BME280;11452;53.368;14.658;2023-02-28T05:08:19;102677.91;;;-0.73;75.28
22572;BME280;11452;53.368;14.658;2023-02-28T05:13:25;102671.13;;;-0.83;74.70
22572;BME280;11452;53.368;14.658;2023-02-28T05:18:31;102675.49;;;-0.84;74.82
22572;BME280;11452;53.368;14.658;2023-02-28T05:23:36;102673.52;;;-0.75;75.30
22572;BME280;11452;53.368;14.658;2023-02-28T05:28:42;102671.31;;;-0.76;74.82
22572;BME280;11452;53.368;14.658;2023-02-28T05:33:48;102668.30;;;-0.72;75.04
22572;BME280;11452;53.368;14.658;2023-02-28T05:38:53;102669.61;;;-0.72;74.98
22572;BME280;11452;53.368;14.658;2023-02-28T05:43:59;102673.94;;;-0.76;74.29
22572;BME280;11452;53.368;14.658;2023-02-28T05:49:05;102668.69;;;-0.74;74.83
22572;BME280;11452;53.368;14.658;2023-02-28T05:54:11;102672.30;;;-0.69;74.63
22572;BME280;11452;53.368;14.658;2023-02-28T05:59:17;102683.64;;;-0.90;73.86
22572;BME280;11452;53.368;14.658;2023-02-28T06:04:27;102685.62;;;-1.00;74.14
22572;BME280;11452;53.368;14.658;2023-02-28T06:09:34;102700.78;;;-1.06;74.19
22572;BME280;11452;53.368;14.658;2023-02-28T06:14:40;102703.60;;;-0.98;74.70
22572;BME280;11452;53.368;14.658;2023-02-28T06:19:45;102705.72;;;-0.82;74.69
22572;BME280;11452;53.368;14.658;2023-02-28T06:24:52;102710.41;;;-0.67;74.61
22572;BME280;11452;53.368;14.658;2023-02-28T06:29:59;102716.58;;;-0.65;74.41
22572;BME280;11452;53.368;14.658;2023-02-28T06:35:05;102714.91;;;-0.62;74.50
22572;BME280;11452;53.368;14.658;2023-02-28T06:40:11;102718.67;;;-0.49;74.45
22572;BME280;11452;53.368;14.658;2023-02-28T06:45:17;102729.42;;;-0.39;74.25
22572;BME280;11452;53.368;14.658;2023-02-28T06:50:23;102732.22;;;-0.29;74.26
22572;BME280;11452;53.368;14.658;2023-02-28T06:55:29;102728.69;;;-0.10;74.41
22572;BME280;11452;53.368;14.658;2023-02-28T07:00:34;102728.21;;;0.11;74.05
22572;BME280;11452;53.368;14.658;2023-02-28T07:05:40;102730.84;;;0.11;74.13
22572;BME280;11452;53.368;14.658;2023-02-28T07:10:45;102744.87;;;0.35;74.44
22572;BME280;11452;53.368;14.658;2023-02-28T07:21:21;102733.86;;;0.84;74.40
22572;BME280;11452;53.368;14.658;2023-02-28T07:26:27;102728.45;;;1.02;74.05
22572;BME280;11452;53.368;14.658;2023-02-28T07:31:33;102729.52;;;1.15;73.90
22572;BME280;11452;53.368;14.658;2023-02-28T07:36:38;102738.78;;;1.51;74.29
22572;BME280;11452;53.368;14.658;2023-02-28T07:41:44;102738.67;;;1.76;73.75
22572;BME280;11452;53.368;14.658;2023-02-28T07:46:49;102748.02;;;1.86;73.23
22572;BME280;11452;53.368;14.658;2023-02-28T07:51:55;102742.61;;;2.11;73.70
22572;BME280;11452;53.368;14.658;2023-02-28T07:57:00;102740.30;;;2.44;73.60
22572;BME280;11452;53.368;14.658;2023-02-28T08:02:10;102744.25;;;2.43;72.19
22572;BME280;11452;53.368;14.658;2023-02-28T08:07:15;102743.11;;;2.60;72.36
22572;BME280;11452;53.368;14.658;2023-02-28T08:12:21;102745.03;;;2.77;71.79
22572;BME280;11452;53.368;14.658;2023-02-28T08:17:26;102748.70;;;3.01;72.04
22572;BME280;11452;53.368;14.658;2023-02-28T08:22:32;102744.33;;;3.04;71.75
22572;BME280;11452;53.368;14.658;2023-02-28T08:27:37;102746.20;;;3.21;71.28
22572;BME280;11452;53.368;14.658;2023-02-28T08:32:43;102743.61;;;3.27;70.23
22572;BME280;11452;53.368;14.658;2023-02-28T08:37:49;102747.27;;;3.48;70.79
22572;BME280;11452;53.368;14.658;2023-02-28T08:42:54;102746.06;;;3.76;70.73
22572;BME280;11452;53.368;14.658;2023-02-28T08:48:00;102733.80;;;3.89;70.32
22572;BME280;11452;53.368;14.658;2023-02-28T08:53:06;102723.30;;;4.22;70.08
22572;BME280;11452;53.368;14.658;2023-02-28T08:58:11;102722.89;;;4.42;69.33
22572;BME280;11452;53.368;14.658;2023-02-28T09:03:17;102723.76;;;4.37;68.52
22572;BME280;11452;53.368;14.658;2023-02-28T09:08:26;102724.22;;;4.58;68.01
22572;BME280;11452;53.368;14.658;2023-02-28T09:13:32;102723.75;;;5.02;67.43
22572;BME280;11452;53.368;14.658;2023-02-28T09:18:38;102723.75;;;5.02;67.43
22572;BME280;11452;53.368;14.658;2023-02-28T09:23:47;102730.81;;;5.14;65.09
22572;BME280;11452;53.368;14.658;2023-02-28T09:28:54;102730.81;;;5.14;65.09
22572;BME280;11452;53.368;14.658;2023-02-28T09:34:00;102724.94;;;5.57;65.41
22572;BME280;11452;53.368;14.658;2023-02-28T09:39:06;102731.04;;;5.82;63.50
22572;BME280;11452;53.368;14.658;2023-02-28T09:44:15;102745.80;;;5.27;61.37
22572;BME280;11452;53.368;14.658;2023-02-28T09:49:28;102743.55;;;5.48;62.28
22572;BME280;11452;53.368;14.658;2023-02-28T09:54:31;102749.78;;;5.38;61.81
22572;BME280;11452;53.368;14.658;2023-02-28T10:00:10;102737.36;;;5.53;61.31
22572;BME280;11452;53.368;14.658;2023-02-28T10:05:23;102739.57;;;5.51;61.02
22572;BME280;11452;53.368;14.658;2023-02-28T10:10:41;102737.30;;;5.64;61.33
22572;BME280;11452;53.368;14.658;2023-02-28T10:15:50;102729.41;;;5.47;59.23
22572;BME280;11452;53.368;14.658;2023-02-28T10:20:56;102730.23;;;5.58;59.41
22572;BME280;11452;53.368;14.658;2023-02-28T10:26:11;102716.63;;;5.38;58.87
22572;BME280;11452;53.368;14.658;2023-02-28T10:31:19;102731.09;;;5.74;58.86
22572;BME280;11452;53.368;14.658;2023-02-28T10:36:26;102734.22;;;5.60;57.15
22572;BME280;11452;53.368;14.658;2023-02-28T10:41:34;102733.27;;;5.90;58.73
22572;BME280;11452;53.368;14.658;2023-02-28T10:46:42;102738.39;;;6.20;58.04
22572;BME280;11452;53.368;14.658;2023-02-28T10:51:51;102749.97;;;6.10;57.30
22572;BME280;11452;53.368;14.658;2023-02-28T10:57:20;102743.36;;;6.03;55.68
22572;BME280;11452;53.368;14.658;2023-02-28T11:02:37;102743.80;;;6.02;55.69
22572;BME280;11452;53.368;14.658;2023-02-28T11:07:38;102732.77;;;5.97;55.44
22572;BME280;11452;53.368;14.658;2023-02-28T11:12:46;102723.05;;;5.94;54.52
22572;BME280;11452;53.368;14.658;2023-02-28T11:23:03;102707.84;;;6.25;54.10
22572;BME280;11452;53.368;14.658;2023-02-28T11:28:34;102704.21;;;6.37;53.77
22572;BME280;11452;53.368;14.658;2023-02-28T11:33:54;102704.66;;;6.35;53.42
22572;BME280;11452;53.368;14.658;2023-02-28T11:39:08;102697.70;;;6.17;51.85
22572;BME280;11452;53.368;14.658;2023-02-28T12:05:44;102667.48;;;7.26;51.61
22572;BME280;11452;53.368;14.658;2023-02-28T12:11:12;102677.77;;;7.21;51.00
22572;BME280;11452;53.368;14.658;2023-02-28T12:16:25;102674.98;;;6.88;49.41
22572;BME280;11452;53.368;14.658;2023-02-28T12:21:50;102672.72;;;6.47;49.63
22572;BME280;11452;53.368;14.658;2023-02-28T12:26:55;102670.69;;;6.75;49.61
22572;BME280;11452;53.368;14.658;2023-02-28T12:32:14;102666.91;;;7.00;50.24
22572;BME280;11452;53.368;14.658;2023-02-28T12:37:17;102659.85;;;7.37;48.51
22572;BME280;11452;53.368;14.658;2023-02-28T12:42:28;102653.94;;;7.10;48.89
22572;BME280;11452;53.368;14.658;2023-02-28T12:47:35;102656.48;;;7.22;49.23
22572;BME280;11452;53.368;14.658;2023-02-28T13:03:59;102625.05;;;7.85;48.20
22572;BME280;11452;53.368;14.658;2023-02-28T13:09:17;102622.47;;;8.09;46.91
22572;BME280;11452;53.368;14.658;2023-02-28T13:19:44;102608.16;;;8.70;47.30
22572;BME280;11452;53.368;14.658;2023-02-28T13:24:54;102617.78;;;8.77;48.02
22572;BME280;11452;53.368;14.658;2023-02-28T13:30:01;102611.09;;;8.78;46.30
22572;BME280;11452;53.368;14.658;2023-02-28T13:40:30;102601.92;;;8.45;46.02
22572;BME280;11452;53.368;14.658;2023-02-28T13:45:37;102597.04;;;9.15;46.42
22572;BME280;11452;53.368;14.658;2023-02-28T13:50:44;102595.09;;;8.78;44.81
22572;BME280;11452;53.368;14.658;2023-02-28T13:56:28;102583.36;;;8.88;44.89
22572;BME280;11452;53.368;14.658;2023-02-28T14:06:37;102582.89;;;9.72;44.34
22572;BME280;11452;53.368;14.658;2023-02-28T14:11:44;102583.11;;;9.00;43.60
22572;BME280;11452;53.368;14.658;2023-02-28T14:16:51;102588.05;;;8.74;43.23
22572;BME280;11452;53.368;14.658;2023-02-28T14:22:01;102581.80;;;8.99;43.77
22572;BME280;11452;53.368;14.658;2023-02-28T14:27:28;102582.03;;;8.64;41.43
22572;BME280;11452;53.368;14.658;2023-02-28T14:32:28;102580.30;;;8.62;43.37
22572;BME280;11452;53.368;14.658;2023-02-28T14:37:37;102574.01;;;8.66;42.28
22572;BME280;11452;53.368;14.658;2023-02-28T14:42:54;102581.23;;;8.59;42.22
22572;BME280;11452;53.368;14.658;2023-02-28T14:47:57;102572.48;;;8.53;42.65
22572;BME280;11452;53.368;14.658;2023-02-28T14:53:04;102567.06;;;8.33;41.68
22572;BME280;11452;53.368;14.658;2023-02-28T14:58:26;102575.05;;;8.33;41.52
22572;BME280;11452;53.368;14.658;2023-02-28T15:03:39;102568.41;;;8.32;42.07
22572;BME280;11452;53.368;14.658;2023-02-28T15:08:40;102573.61;;;8.38;42.05
22572;BME280;11452;53.368;14.658;2023-02-28T15:13:50;102566.50;;;8.39;41.81
22572;BME280;11452;53.368;14.658;2023-02-28T15:19:13;102565.87;;;7.96;42.25
22572;BME280;11452;53.368;14.658;2023-02-28T15:24:16;102556.58;;;7.94;41.80
22572;BME280;11452;53.368;14.658;2023-02-28T15:29:24;102558.28;;;7.70;41.85
22572;BME280;11452;53.368;14.658;2023-02-28T15:39:42;102556.91;;;7.73;42.75
22572;BME280;11452;53.368;14.658;2023-02-28T15:44:49;102557.41;;;7.70;42.85
22572;BME280;11452;53.368;14.658;2023-02-28T15:50:05;102563.02;;;7.50;43.13
22572;BME280;11452;53.368;14.658;2023-02-28T15:55:12;102554.84;;;7.32;43.32
22572;BME280;11452;53.368;14.658;2023-02-28T16:00:24;102559.53;;;7.12;43.85
22572;BME280;11452;53.368;14.658;2023-02-28T16:05:31;102547.91;;;7.20;44.42
22572;BME280;11452;53.368;14.658;2023-02-28T16:10:37;102540.26;;;7.27;44.47
22572;BME280;11452;53.368;14.658;2023-02-28T16:15:43;102541.23;;;7.23;45.40
22572;BME280;11452;53.368;14.658;2023-02-28T16:20:49;102546.73;;;7.07;44.97
22572;BME280;11452;53.368;14.658;2023-02-28T16:25:54;102539.85;;;6.90;44.95
22572;BME280;11452;53.368;14.658;2023-02-28T16:31:01;102544.52;;;6.69;45.07
22572;BME280;11452;53.368;14.658;2023-02-28T16:36:13;102543.34;;;6.56;45.15
22572;BME280;11452;53.368;14.658;2023-02-28T16:41:21;102544.38;;;6.43;45.46
22572;BME280;11452;53.368;14.658;2023-02-28T16:46:31;102547.34;;;6.10;45.40
22572;BME280;11452;53.368;14.658;2023-02-28T16:51:37;102555.19;;;5.58;46.16
22572;BME280;11452;53.368;14.658;2023-02-28T16:56:45;102544.66;;;5.48;47.00
22572;BME280;11452;53.368;14.658;2023-02-28T17:01:52;102553.23;;;5.18;47.38
22572;BME280;11452;53.368;14.658;2023-02-28T17:06:58;102552.89;;;4.87;48.39
22572;BME280;11452;53.368;14.658;2023-02-28T17:12:05;102547.70;;;4.47;49.13
22572;BME280;11452;53.368;14.658;2023-02-28T17:17:21;102567.14;;;4.33;49.85
22572;BME280;11452;53.368;14.658;2023-02-28T17:22:22;102569.81;;;4.05;50.55
22572;BME280;11452;53.368;14.658;2023-02-28T17:27:27;102570.69;;;4.01;51.30
22572;BME280;11452;53.368;14.658;2023-02-28T17:32:33;102575.09;;;3.86;51.70
22572;BME280;11452;53.368;14.658;2023-02-28T17:37:38;102575.94;;;3.74;52.17
22572;BME280;11452;53.368;14.658;2023-02-28T17:42:44;102588.72;;;3.76;52.48
22572;BME280;11452;53.368;14.658;2023-02-28T17:47:50;102591.81;;;3.69;52.51
22572;BME280;11452;53.368;14.658;2023-02-28T17:52:56;102590.88;;;3.49;52.75
22572;BME280;11452;53.368;14.658;2023-02-28T17:58:03;102593.47;;;3.31;53.45
22572;BME280;11452;53.368;14.658;2023-02-28T18:03:09;102592.08;;;3.14;54.49
22572;BME280;11452;53.368;14.658;2023-02-28T18:08:16;102602.56;;;2.96;54.91
22572;BME280;11452;53.368;14.658;2023-02-28T18:13:22;102600.77;;;2.92;55.40
22572;BME280;11452;53.368;14.658;2023-02-28T18:18:27;102600.79;;;2.99;55.62
22572;BME280;11452;53.368;14.658;2023-02-28T18:23:33;102608.98;;;2.68;56.60
22572;BME280;11452;53.368;14.658;2023-02-28T18:28:39;102608.00;;;2.53;57.05
22572;BME280;11452;53.368;14.658;2023-02-28T18:33:49;102598.21;;;2.36;57.59
22572;BME280;11452;53.368;14.658;2023-02-28T18:38:55;102597.23;;;2.25;58.03
22572;BME280;11452;53.368;14.658;2023-02-28T18:44:02;102589.22;;;2.13;58.61
22572;BME280;11452;53.368;14.658;2023-02-28T18:49:10;102584.37;;;2.11;58.87
22572;BME280;11452;53.368;14.658;2023-02-28T18:54:16;102587.83;;;2.02;59.20
22572;BME280;11452;53.368;14.658;2023-02-28T18:59:22;102588.15;;;1.91;60.21
22572;BME280;11452;53.368;14.658;2023-02-28T19:04:27;102580.19;;;1.84;60.49
22572;BME280;11452;53.368;14.658;2023-02-28T19:09:33;102576.25;;;1.85;60.65
22572;BME280;11452;53.368;14.658;2023-02-28T19:14:38;102579.30;;;1.83;61.03
22572;BME280;11452;53.368;14.658;2023-02-28T19:19:44;102565.55;;;1.71;61.48
22572;BME280;11452;53.368;14.658;2023-02-28T19:24:50;102564.06;;;1.55;61.91
22572;BME280;11452;53.368;14.658;2023-02-28T19:29:55;102553.91;;;1.50;62.50
22572;BME280;11452;53.368;14.658;2023-02-28T19:35:03;102558.81;;;1.56;62.80
22572;BME280;11452;53.368;14.658;2023-02-28T19:40:09;102563.14;;;1.51;62.94
22572;BME280;11452;53.368;14.658;2023-02-28T19:45:17;102564.02;;;1.50;63.17
22572;BME280;11452;53.368;14.658;2023-02-28T19:50:22;102569.18;;;1.39;63.56
22572;BME280;11452;53.368;14.658;2023-02-28T19:55:28;102570.91;;;1.37;63.71
22572;BME280;11452;53.368;14.658;2023-02-28T20:00:35;102568.26;;;1.36;63.95
22572;BME280;11452;53.368;14.658;2023-02-28T20:05:40;102564.67;;;1.31;64.23
22572;BME280;11452;53.368;14.658;2023-02-28T20:10:46;102560.23;;;1.24;64.58
22572;BME280;11452;53.368;14.658;2023-02-28T20:15:51;102565.45;;;1.21;64.74
22572;BME280;11452;53.368;14.658;2023-02-28T20:20:58;102560.62;;;1.20;64.81
22572;BME280;11452;53.368;14.658;2023-02-28T20:26:05;102557.52;;;1.18;65.13
22572;BME280;11452;53.368;14.658;2023-02-28T20:31:24;102561.01;;;1.17;65.32
22572;BME280;11452;53.368;14.658;2023-02-28T20:36:19;102558.30;;;1.09;65.42
22572;BME280;11452;53.368;14.658;2023-02-28T20:41:27;102558.20;;;1.01;65.91
22572;BME280;11452;53.368;14.658;2023-02-28T20:46:32;102557.78;;;1.03;65.90
22572;BME280;11452;53.368;14.658;2023-02-28T20:51:39;102559.52;;;1.01;66.18
22572;BME280;11452;53.368;14.658;2023-02-28T20:56:46;102561.65;;;0.97;66.34
22572;BME280;11452;53.368;14.658;2023-02-28T21:01:52;102566.53;;;1.01;66.31
22572;BME280;11452;53.368;14.658;2023-02-28T21:06:59;102558.95;;;0.93;66.54
22572;BME280;11452;53.368;14.658;2023-02-28T21:12:05;102566.07;;;1.00;66.85
22572;BME280;11452;53.368;14.658;2023-02-28T21:17:11;102578.69;;;0.93;66.85
22572;BME280;11452;53.368;14.658;2023-02-28T21:22:16;102585.05;;;1.07;67.09
22572;BME280;11452;53.368;14.658;2023-02-28T21:27:23;102587.13;;;1.00;67.06
22572;BME280;11452;53.368;14.658;2023-02-28T21:32:28;102594.94;;;0.94;67.20
22572;BME280;11452;53.368;14.658;2023-02-28T21:37:37;102601.08;;;0.91;67.60
22572;BME280;11452;53.368;14.658;2023-02-28T21:42:43;102600.66;;;0.95;67.92
22572;BME280;11452;53.368;14.658;2023-02-28T21:47:48;102598.89;;;0.94;67.80
22572;BME280;11452;53.368;14.658;2023-02-28T21:52:54;102594.23;;;1.06;68.18
22572;BME280;11452;53.368;14.658;2023-02-28T21:57:59;102595.55;;;1.06;68.04
22572;BME280;11452;53.368;14.658;2023-02-28T22:03:05;102603.81;;;1.00;68.53
22572;BME280;11452;53.368;14.658;2023-02-28T22:08:10;102599.41;;;0.99;68.53
22572;BME280;11452;53.368;14.658;2023-02-28T22:13:16;102610.30;;;0.94;68.83
22572;BME280;11452;53.368;14.658;2023-02-28T22:18:23;102601.51;;;0.91;68.93
22572;BME280;11452;53.368;14.658;2023-02-28T22:23:29;102599.55;;;0.78;69.43
22572;BME280;11452;53.368;14.658;2023-02-28T22:28:37;102580.72;;;0.80;69.50
22572;BME280;11452;53.368;14.658;2023-02-28T22:33:43;102579.31;;;0.72;69.58
22572;BME280;11452;53.368;14.658;2023-02-28T22:38:50;102572.75;;;0.75;70.16
22572;BME280;11452;53.368;14.658;2023-02-28T22:43:58;102574.52;;;0.76;69.90
22572;BME280;11452;53.368;14.658;2023-02-28T22:49:05;102570.13;;;0.75;69.96
22572;BME280;11452;53.368;14.658;2023-02-28T22:54:10;102569.63;;;0.69;70.48
22572;BME280;11452;53.368;14.658;2023-02-28T22:59:16;102571.33;;;0.66;70.46
22572;BME280;11452;53.368;14.658;2023-02-28T23:04:21;102568.80;;;0.72;70.74
22572;BME280;11452;53.368;14.658;2023-02-28T23:09:29;102558.83;;;0.82;70.34
22572;BME280;11452;53.368;14.658;2023-02-28T23:14:34;102556.72;;;0.88;71.12
22572;BME280;11452;53.368;14.658;2023-02-28T23:19:39;102561.94;;;0.85;70.49
22572;BME280;11452;53.368;14.658;2023-02-28T23:24:45;102566.25;;;0.80;70.72
22572;BME280;11452;53.368;14.658;2023-02-28T23:29:51;102565.38;;;0.81;70.85
22572;BME280;11452;53.368;14.658;2023-02-28T23:34:58;102573.92;;;0.97;71.00
22572;BME280;11452;53.368;14.658;2023-02-28T23:40:10;102574.25;;;0.87;70.67
22572;BME280;11452;53.368;14.658;2023-02-28T23:45:12;102571.15;;;0.85;70.87
22572;BME280;11452;53.368;14.658;2023-02-28T23:50:17;102574.57;;;0.79;70.81
22572;BME280;11452;53.368;14.658;2023-02-28T23:55:22;102574.62;;;0.82;71.02
